Time;durP1;ratioP1;P1;durP2;ratioP2;P2;SDS_P1;SDS_P2;PMS_P1;PMS_P2;Temp;Humidity;BMP_temperature;BMP_pressure;BME280_temperature;BME280_humidity;BME280_pressure;Samples;Min_cycle;Max_cycle;Signal;HPM_P1;HPM_P2
2022/07/14 00:01:28;;;;;;;2.33;0.75;;;;;;;29.30;32.80;101907.34;6219103;23;20008;-46
2022/07/14 00:03:57;;;;;;;2.20;0.93;;;;;;;29.19;33.14;101902.91;6247040;23;20027;-46
2022/07/14 00:06:26;;;;;;;5.15;1.23;;;;;;;29.32;32.96;101905.59;6247549;23;20008;-44
2022/07/14 00:08:54;;;;;;;3.00;1.08;;;;;;;29.14;33.16;101912.53;6247327;23;20420;-45
2022/07/14 00:11:23;;;;;;;4.10;1.40;;;;;;;29.11;33.22;101908.13;6247691;23;20027;-44
2022/07/14 00:13:51;;;;;;;4.05;1.25;;;;;;;29.03;33.13;101894.00;6247054;23;20027;-44
2022/07/14 00:16:20;;;;;;;3.58;1.35;;;;;;;29.13;32.72;101915.19;6220881;23;20014;-56
2022/07/14 00:18:49;;;;;;;4.22;1.30;;;;;;;29.15;32.84;101913.44;6247339;23;20000;-44
2022/07/14 00:21:18;;;;;;;2.80;1.30;;;;;;;29.09;33.07;101912.53;6220858;23;20375;-56
2022/07/14 00:23:47;;;;;;;3.00;1.75;;;;;;;28.95;33.66;101903.63;6247349;23;20004;-44
2022/07/14 00:26:16;;;;;;;3.08;1.70;;;;;;;29.00;32.95;101908.94;6220666;23;20023;-44
2022/07/14 00:28:44;;;;;;;4.55;2.25;;;;;;;28.75;33.26;101901.72;6220148;23;20000;-47
2022/07/14 00:31:13;;;;;;;6.07;1.85;;;;;;;29.00;33.04;101915.13;6246878;23;20340;-44
2022/07/14 00:33:41;;;;;;;4.22;1.60;;;;;;;28.93;33.03;101906.28;6247107;23;20007;-50
2022/07/14 00:36:10;;;;;;;5.25;1.73;;;;;;;28.73;33.07;101898.19;6245678;23;20004;-53
2022/07/14 00:38:38;;;;;;;8.05;1.90;;;;;;;28.87;32.97;101906.22;6245036;23;20004;-44
2022/07/14 00:41:05;;;;;;;3.00;1.35;;;;;;;28.77;32.90;101894.72;6246462;23;20324;-58
2022/07/14 00:43:34;;;;;;;5.20;1.58;;;;;;;28.69;33.20;101901.66;6246838;23;20012;-53
2022/07/14 00:46:03;;;;;;;3.67;1.55;;;;;;;28.70;33.02;101895.53;6245627;23;20075;-57
2022/07/14 00:48:31;;;;;;;4.28;1.77;;;;;;;28.70;32.79;101894.63;6247008;23;20008;-43
2022/07/14 00:50:59;;;;;;;2.83;1.65;;;;;;;28.56;33.18;101894.50;6246408;23;20082;-43
2022/07/14 00:53:28;;;;;;;5.13;1.35;;;;;;;28.53;32.92;101876.88;6246979;23;20004;-44
2022/07/14 00:55:56;;;;;;;2.58;1.35;;;;;;;28.56;32.79;101895.41;6247239;23;20004;-44
2022/07/14 00:58:25;;;;;;;2.55;1.35;;;;;;;28.39;33.08;101881.19;6246548;23;20480;-56
2022/07/14 01:00:53;;;;;;;2.65;1.30;;;;;;;28.30;33.25;101885.47;6246388;23;20004;-50
2022/07/14 01:03:22;;;;;;;3.42;1.40;;;;;;;28.34;33.13;101873.22;6246927;23;20035;-57
2022/07/14 01:05:50;;;;;;;2.17;1.38;;;;;;;28.46;33.00;101890.94;6247203;23;20328;-45
2022/07/14 01:08:19;;;;;;;4.88;1.45;;;;;;;28.16;33.18;101873.91;6246509;23;20014;-48
2022/07/14 01:10:48;;;;;;;3.15;1.77;;;;;;;28.27;33.16;101885.47;6247031;23;20000;-43
2022/07/14 01:13:16;;;;;;;4.20;1.35;;;;;;;28.16;33.26;101879.19;6246759;23;20008;-54
2022/07/14 01:15:45;;;;;;;2.42;1.20;;;;;;;28.16;33.45;101890.66;6244570;23;20012;-43
2022/07/14 01:18:14;;;;;;;3.75;1.77;;;;;;;28.17;33.09;101887.16;6220468;23;20065;-44
2022/07/14 01:20:42;;;;;;;2.92;1.20;;;;;;;28.12;33.30;101883.56;6247056;23;20000;-49
2022/07/14 01:23:11;;;;;;;4.15;1.20;;;;;;;28.07;33.50;101879.09;6246505;23;20012;-49
2022/07/14 01:25:39;;;;;;;2.85;0.90;;;;;;;28.12;33.43;101890.63;6219817;23;20044;-45
2022/07/14 01:28:07;;;;;;;2.58;1.30;;;;;;;27.95;33.71;101877.19;6246527;23;20409;-44
2022/07/14 01:30:36;;;;;;;4.70;1.58;;;;;;;27.80;33.50;101857.72;6220017;23;20004;-45
2022/07/14 01:33:05;;;;;;;2.15;0.98;;;;;;;27.92;33.48;101885.97;6246405;23;20010;-49
2022/07/14 01:35:33;;;;;;;4.63;0.90;;;;;;;28.02;33.58;101886.97;6219285;23;20043;-57
2022/07/14 01:38:02;;;;;;;2.10;1.00;;;;;;;27.97;33.47;101894.81;6219711;23;20012;-47
2022/07/14 01:40:30;;;;;;;3.30;1.20;;;;;;;27.94;33.63;101892.16;6246180;23;20032;-45
2022/07/14 01:42:59;;;;;;;2.58;1.00;;;;;;;27.93;33.62;101889.47;6246068;23;20020;-56
2022/07/14 01:45:27;;;;;;;3.53;1.33;;;;;;;27.73;34.16;101890.13;6246470;23;20007;-46
2022/07/14 01:47:56;;;;;;;7.85;1.10;;;;;;;27.80;34.26;101885.84;6246423;23;20008;-45
2022/07/14 01:50:24;;;;;;;4.72;1.38;;;;;;;27.64;34.36;101872.47;6246250;23;20011;-47
2022/07/14 01:52:53;;;;;;;3.17;1.10;;;;;;;27.81;34.26;101877.03;6246185;23;20066;-46
2022/07/14 01:55:22;;;;;;;3.95;1.50;;;;;;;27.83;34.30;101886.75;6246334;23;20013;-47
2022/07/14 01:57:50;;;;;;;5.80;1.30;;;;;;;27.71;34.50;101887.50;6246721;23;20054;-45
2022/07/14 02:00:19;;;;;;;2.72;1.17;;;;;;;27.52;35.06;101882.88;6246435;23;20058;-57
2022/07/14 02:02:47;;;;;;;4.13;1.35;;;;;;;27.51;35.13;101889.00;6246333;23;20424;-56
2022/07/14 02:05:16;;;;;;;4.68;1.20;;;;;;;27.50;35.19;101893.41;6246380;23;20000;-44
2022/07/14 02:07:44;;;;;;;4.32;1.17;;;;;;;27.46;35.46;101891.59;6246292;23;20423;-44
2022/07/14 02:13:00;;;;;;;5.70;1.73;;;;;;;27.49;35.53;101901.25;6240584;23;20000;-46
2022/07/14 02:15:30;;;;;;;3.10;1.33;;;;;;;27.52;35.71;101896.94;6245445;23;20004;-47
2022/07/14 02:17:58;;;;;;;4.60;1.38;;;;;;;27.57;35.54;101899.63;6245607;23;20008;-52
2022/07/14 02:20:27;;;;;;;4.45;1.40;;;;;;;27.43;35.93;101897.69;6245770;23;20065;-44
2022/07/14 02:22:55;;;;;;;6.88;1.67;;;;;;;27.41;36.25;101896.75;6246091;23;20007;-51
2022/07/14 02:25:24;;;;;;;4.03;1.52;;;;;;;27.15;37.16;101902.53;6245829;23;20429;-44
2022/07/14 02:27:53;;;;;;;4.30;1.13;;;;;;;27.20;36.60;101892.09;6246100;23;20043;-47
2022/07/14 02:30:21;;;;;;;3.75;1.40;;;;;;;27.25;36.90;101897.41;6246100;23;20442;-45
2022/07/14 02:32:50;;;;;;;8.85;2.08;;;;;;;27.10;36.84;101870.00;6245828;23;20335;-52
2022/07/14 02:35:17;;;;;;;5.53;1.40;;;;;;;27.15;37.21;101899.91;6246084;23;20000;-44
2022/07/14 02:37:46;;;;;;;4.32;1.48;;;;;;;27.15;36.88;101892.00;6245794;23;20091;-48
2022/07/14 02:40:14;;;;;;;4.70;1.58;;;;;;;27.14;37.32;101897.28;6245764;23;20000;-45
2022/07/14 02:42:43;;;;;;;3.20;1.45;;;;;;;27.13;37.12;101892.88;6245391;23;20012;-48
2022/07/14 02:45:12;;;;;;;3.92;1.40;;;;;;;26.94;37.58;101891.72;6245059;23;20011;-47
2022/07/14 02:47:40;;;;;;;5.47;1.50;;;;;;;26.80;37.95;101884.50;6245737;23;20004;-50
2022/07/14 02:50:08;;;;;;;3.50;1.20;;;;;;;26.81;37.72;101885.38;6246303;23;20309;-50
2022/07/14 02:52:36;;;;;;;6.88;1.70;;;;;;;26.77;37.93;101873.88;6246034;23;20079;-51
2022/07/14 02:55:09;;;;;;;5.30;1.30;;;;;;;26.83;37.39;101879.25;6245699;23;20028;-52
2022/07/14 02:57:41;;;;;;;4.55;1.73;;;;;;;26.93;37.33;101885.56;6245265;23;20036;-44
2022/07/14 03:00:11;;;;;;;3.83;1.50;;;;;;;26.82;37.79;101885.38;6246127;23;20000;-54
2022/07/14 03:02:40;;;;;;;5.93;1.60;;;;;;;26.70;37.98;101887.78;6219532;23;19996;-46
2022/07/14 03:05:08;;;;;;;4.95;1.38;;;;;;;26.66;37.74;101886.88;6244031;23;20320;-44
2022/07/14 03:07:37;;;;;;;4.47;1.75;;;;;;;26.71;37.71;101888.69;6245636;23;20004;-56
2022/07/14 03:10:06;;;;;;;5.15;1.48;;;;;;;26.69;37.89;101889.56;6245846;23;20026;-49
2022/07/14 03:12:35;;;;;;;2.88;1.13;;;;;;;26.60;37.89;101875.38;6244883;23;20008;-43
2022/07/14 03:15:03;;;;;;;2.70;1.23;;;;;;;26.62;37.69;101890.31;6243999;23;20023;-47
2022/07/14 03:17:32;;;;;;;4.30;1.65;;;;;;;26.59;37.51;101876.22;6245798;23;20009;-53
2022/07/14 03:20:00;;;;;;;4.25;1.65;;;;;;;26.64;37.70;101892.97;6245998;23;20004;-49
2022/07/14 03:22:29;;;;;;;5.43;1.88;;;;;;;26.59;37.95;101895.50;6245173;23;20010;-48
2022/07/14 03:24:58;;;;;;;5.03;1.60;;;;;;;26.41;38.19;101892.56;6245205;23;20058;-45
2022/07/14 03:27:26;;;;;;;4.35;1.30;;;;;;;26.45;38.08;101890.03;6245754;23;20012;-56
2022/07/14 03:29:55;;;;;;;5.20;1.85;;;;;;;26.39;37.93;101890.78;6245659;23;20000;-45
2022/07/14 03:32:23;;;;;;;6.68;1.70;;;;;;;26.34;38.53;101897.75;6245369;23;20004;-46
2022/07/14 03:34:52;;;;;;;2.25;1.30;;;;;;;26.32;38.38;101901.19;6245615;23;20011;-43
2022/07/14 03:37:20;;;;;;;3.40;1.52;;;;;;;26.26;38.33;101890.56;6245351;23;20079;-43
2022/07/14 03:39:49;;;;;;;5.88;1.73;;;;;;;26.06;38.58;101875.28;6247551;23;20101;-48
2022/07/14 03:42:17;;;;;;;4.50;1.85;;;;;;;26.14;38.54;101896.47;6247684;23;20016;-55
2022/07/14 03:44:46;;;;;;;5.30;1.70;;;;;;;25.98;38.85;101883.00;6247354;23;20061;-45
2022/07/14 03:47:15;;;;;;;3.80;2.03;;;;;;;25.96;38.98;101891.75;6247561;23;20378;-55
2022/07/14 03:49:44;;;;;;;3.38;1.67;;;;;;;26.07;38.81;101895.44;6247982;23;20004;-47
2022/07/14 03:52:12;;;;;;;3.80;2.20;;;;;;;26.04;39.08;101898.91;6247740;23;20000;-44
2022/07/14 03:54:44;;;;;;;4.38;2.30;;;;;;;26.02;38.83;101889.22;6247778;23;20000;-50
2022/07/14 03:57:13;;;;;;;5.65;2.50;;;;;;;26.03;39.04;101898.88;6247020;23;20012;-46
2022/07/14 03:59:42;;;;;;;5.03;2.60;;;;;;;26.02;39.41;101915.50;6246834;23;20432;-56
2022/07/14 04:02:11;;;;;;;5.57;2.72;;;;;;;26.01;39.12;101903.22;6221293;23;20008;-56
2022/07/14 04:04:39;;;;;;;4.15;2.50;;;;;;;26.04;39.44;101895.38;6247707;23;20000;-48
2022/07/14 04:07:08;;;;;;;5.28;3.15;;;;;;;25.97;39.78;101898.78;6247304;23;20015;-49
2022/07/14 04:09:37;;;;;;;9.07;4.00;;;;;;;25.91;40.09;101895.16;6247146;23;20004;-55
2022/07/14 04:12:05;;;;;;;7.25;3.15;;;;;;;25.97;39.53;101888.25;6195697;23;20439;-50
2022/07/14 04:14:33;;;;;;;7.80;3.45;;;;;;;25.82;39.91;101899.34;6246862;23;20004;-46
2022/07/14 04:17:02;;;;;;;5.07;2.90;;;;;;;25.86;39.72;101898.56;6247113;23;20431;-44
2022/07/14 04:19:30;;;;;;;7.28;3.35;;;;;;;25.87;39.69;101902.97;6247146;23;20000;-46
2022/07/14 04:21:59;;;;;;;5.72;3.08;;;;;;;25.69;40.06;101909.63;6246489;23;20008;-48
2022/07/14 04:24:28;;;;;;;5.03;2.42;;;;;;;25.61;40.02;101909.47;6220567;23;20008;-47
2022/07/14 04:26:56;;;;;;;5.88;2.83;;;;;;;25.40;40.76;101908.97;6246942;23;20004;-45
2022/07/14 04:29:25;;;;;;;5.00;2.80;;;;;;;25.40;40.31;101911.59;6247436;23;20000;-53
2022/07/14 04:31:53;;;;;;;6.10;2.90;;;;;;;25.43;40.27;101912.56;6220191;23;20007;-47
2022/07/14 04:34:22;;;;;;;9.38;3.20;;;;;;;25.30;40.82;101919.28;6247291;23;20000;-45
2022/07/14 04:36:50;;;;;;;6.07;3.58;;;;;;;25.32;40.39;101928.03;6246939;23;20004;-46
2022/07/14 04:39:19;;;;;;;5.70;3.20;;;;;;;25.05;41.18;101899.44;6247164;23;20428;-43
2022/07/14 04:41:47;;;;;;;5.10;2.92;;;;;;;25.29;40.62;101934.97;6246682;23;20000;-44
2022/07/14 04:44:15;;;;;;;7.22;3.08;;;;;;;25.21;41.12;101929.56;6246889;23;20452;-51
2022/07/14 04:46:44;;;;;;;6.38;3.40;;;;;;;25.16;41.00;101933.78;6247014;23;20090;-56
2022/07/14 04:52:03;;;;;;;5.88;3.25;;;;;;;25.10;41.37;101923.16;6235621;23;20087;-44
2022/07/14 04:54:33;;;;;;;8.07;3.88;;;;;;;25.08;41.51;101931.00;6246564;23;20067;-43
2022/07/14 04:57:03;;;;;;;7.57;3.88;;;;;;;25.05;42.14;101933.56;6219541;23;20004;-56
2022/07/14 04:59:32;;;;;;;9.45;3.78;;;;;;;25.14;41.41;101936.41;6246728;23;20055;-49
2022/07/14 05:02:00;;;;;;;8.32;4.18;;;;;;;25.17;41.93;101943.44;6246804;23;20004;-55
2022/07/14 05:04:29;;;;;;;13.93;3.67;;;;;;;25.26;41.55;101940.16;6247164;23;20374;-44
2022/07/14 05:06:58;;;;;;;9.77;3.90;;;;;;;25.34;41.59;101942.09;6246724;23;20011;-56
2022/07/14 05:09:30;;;;;;;5.28;3.50;;;;;;;25.27;41.53;101942.84;6247170;23;20008;-44
2022/07/14 05:11:58;;;;;;;10.20;3.92;;;;;;;25.29;42.20;101941.13;6245206;23;20011;-56
2022/07/14 05:14:27;;;;;;;9.48;3.55;;;;;;;25.17;42.00;101938.19;6247080;23;20367;-51
2022/07/14 05:16:55;;;;;;;13.13;4.47;;;;;;;25.14;42.48;101944.28;6220046;23;20046;-43
2022/07/14 05:19:24;;;;;;;9.75;3.60;;;;;;;25.14;42.78;101946.03;6247970;23;20004;-44
2022/07/14 05:21:53;;;;;;;8.30;3.75;;;;;;;25.10;42.83;101946.81;6247784;23;20332;-43
2022/07/14 05:24:22;;;;;;;9.73;3.15;;;;;;;25.18;42.48;101945.22;6247164;23;20000;-55
2022/07/14 05:26:50;;;;;;;8.85;3.58;;;;;;;25.22;42.77;101946.22;6246090;23;20026;-44
2022/07/14 05:29:19;;;;;;;8.32;3.42;;;;;;;25.21;42.72;101944.44;6245088;23;20004;-51
2022/07/14 05:31:47;;;;;;;6.32;3.17;;;;;;;25.03;43.19;101938.75;6246183;23;20000;-49
2022/07/14 05:34:16;;;;;;;6.60;3.40;;;;;;;25.15;43.07;101955.69;6246193;23;20005;-45
2022/07/14 05:36:45;;;;;;;17.45;3.00;;;;;;;25.26;43.18;101950.66;6246623;23;20060;-55
2022/07/14 05:39:13;;;;;;;7.35;3.53;;;;;;;25.33;43.08;101945.56;6247676;23;20085;-43
2022/07/14 05:41:42;;;;;;;6.57;3.15;;;;;;;25.24;43.64;101958.50;6246275;23;20004;-44
2022/07/14 05:44:10;;;;;;;12.38;3.25;;;;;;;25.35;43.60;101961.38;6246130;23;20012;-45
2022/07/14 05:46:39;;;;;;;7.72;3.10;;;;;;;25.54;42.75;101962.72;6246608;23;20008;-53
2022/07/14 05:49:06;;;;;;;8.45;3.30;;;;;;;25.62;42.90;101966.41;6246757;23;20124;-44
2022/07/14 05:51:35;;;;;;;7.47;2.78;;;;;;;25.73;42.88;101969.25;6220276;23;20008;-45
2022/07/14 05:54:03;;;;;;;8.32;2.72;;;;;;;25.57;43.03;101968.03;6247093;23;20004;-50
2022/07/14 05:56:32;;;;;;;6.97;2.47;;;;;;;25.68;42.56;101968.28;6245712;23;20004;-44
2022/07/14 05:59:01;;;;;;;8.98;3.65;;;;;;;25.66;43.29;101972.63;6246668;23;20396;-44
2022/07/14 06:01:29;;;;;;;9.30;3.45;;;;;;;25.65;43.64;101970.84;6218951;23;20301;-46
2022/07/14 06:03:58;;;;;;;6.28;2.58;;;;;;;25.73;43.23;101973.63;6246606;23;20072;-44
2022/07/14 06:06:26;;;;;;;8.35;2.97;;;;;;;25.74;43.43;101976.28;6246250;23;20000;-43
2022/07/14 06:08:55;;;;;;;8.93;3.47;;;;;;;25.82;43.74;101980.81;6246542;23;20075;-46
2022/07/14 06:11:24;;;;;;;9.77;2.95;;;;;;;25.74;43.24;101955.25;6220000;23;20442;-56
2022/07/14 06:13:52;;;;;;;12.35;2.75;;;;;;;25.97;42.87;101975.88;6246456;23;20000;-49
2022/07/14 06:16:21;;;;;;;6.47;2.53;;;;;;;26.01;43.04;101983.00;6246173;23;20000;-55
2022/07/14 06:18:49;;;;;;;6.65;2.70;;;;;;;26.12;42.52;101979.72;6246188;23;20071;-56
2022/07/14 06:21:16;;;;;;;6.10;2.55;;;;;;;26.04;43.05;101972.53;6246377;23;20000;-54
2022/07/14 06:23:45;;;;;;;9.40;2.35;;;;;;;26.17;42.47;101970.19;6218810;23;20010;-48
2022/07/14 06:26:14;;;;;;;8.45;2.28;;;;;;;26.13;42.91;101979.75;6246174;23;20004;-55
2022/07/14 06:28:41;;;;;;;9.30;2.72;;;;;;;26.18;42.59;101982.47;6246685;23;20349;-53
2022/07/14 06:31:10;;;;;;;5.30;2.10;;;;;;;26.23;42.22;101981.72;6246589;23;20004;-44
2022/07/14 06:33:38;;;;;;;5.93;2.40;;;;;;;26.18;42.16;101980.72;6246170;23;20004;-43
2022/07/14 06:36:08;;;;;;;5.28;2.38;;;;;;;26.34;42.04;101981.00;6218659;23;20313;-45
2022/07/14 06:38:37;;;;;;;8.55;2.70;;;;;;;26.33;42.27;101979.25;6245963;23;20416;-48
2022/07/14 06:41:05;;;;;;;6.72;2.55;;;;;;;26.36;41.80;101980.22;6245646;23;20014;-46
2022/07/14 06:43:34;;;;;;;6.35;2.50;;;;;;;26.35;41.70;101982.78;6245180;23;20012;-51
2022/07/14 06:46:03;;;;;;;9.60;2.90;;;;;;;26.50;41.77;101982.19;6245564;23;20004;-45
2022/07/14 06:48:31;;;;;;;5.68;2.05;;;;;;;26.29;41.86;101964.28;6245974;23;20030;-47
2022/07/14 06:51:05;;;;;;;6.97;2.30;;;;;;;26.52;41.46;101983.13;6246042;23;20004;-44
2022/07/14 06:53:33;;;;;;;6.13;2.13;;;;;;;26.57;41.58;101983.19;6244530;23;20000;-44
2022/07/14 06:56:02;;;;;;;10.20;2.58;;;;;;;26.74;41.26;101987.00;6245740;23;20031;-50
2022/07/14 06:58:32;;;;;;;5.57;2.15;;;;;;;26.75;40.86;101986.16;6245314;23;20019;-51
2022/07/14 07:01:01;;;;;;;6.78;1.85;;;;;;;26.86;41.13;101983.75;6245513;23;20420;-44
2022/07/14 07:03:30;;;;;;;9.43;2.08;;;;;;;26.97;40.55;101991.84;6219265;23;20000;-46
2022/07/14 07:08:46;;;;;;;6.30;1.95;;;;;;;27.04;40.11;101993.69;6234630;23;20015;-44
2022/07/14 07:11:13;;;;;;;7.00;2.60;;;;;;;27.12;40.25;101986.81;6245543;23;20412;-51
2022/07/14 07:13:43;;;;;;;7.03;1.92;;;;;;;27.13;40.00;102000.84;6247110;23;20008;-48
2022/07/14 07:16:11;;;;;;;7.15;1.98;;;;;;;27.26;39.80;102005.44;6247940;23;20075;-46
2022/07/14 07:18:40;;;;;;;5.18;2.25;;;;;;;27.29;39.63;101999.34;6248506;23;20008;-45
2022/07/14 07:21:07;;;;;;;7.78;2.30;;;;;;;27.30;39.52;102001.13;6244295;23;20377;-45
2022/07/14 07:23:36;;;;;;;6.63;1.77;;;;;;;27.31;39.20;101994.97;6240496;23;20015;-49
2022/07/14 07:26:04;;;;;;;5.75;1.85;;;;;;;27.36;39.38;101990.66;6237522;23;20351;-51
2022/07/14 07:28:32;;;;;;;8.38;1.73;;;;;;;27.36;39.20;101990.66;6237819;23;20066;-51
2022/07/14 07:31:00;;;;;;;6.68;2.00;;;;;;;27.44;39.15;101999.59;6236223;23;20004;-55
2022/07/14 07:33:28;;;;;;;5.60;1.80;;;;;;;27.47;39.05;101993.50;6236587;23;20035;-46
2022/07/14 07:35:55;;;;;;;7.38;1.77;;;;;;;27.53;39.18;101990.97;6237246;23;20087;-52
2022/07/14 07:38:23;;;;;;;5.28;1.73;;;;;;;27.49;39.04;101985.59;6237735;23;20432;-54
2022/07/14 07:40:53;;;;;;;8.13;2.58;;;;;;;27.48;39.44;102003.16;6235668;23;20004;-47
2022/07/14 07:43:22;;;;;;;6.45;2.10;;;;;;;27.65;38.68;102008.66;6237112;23;20019;-53
2022/07/14 07:45:51;;;;;;;5.70;1.73;;;;;;;27.71;38.41;102007.91;6237124;23;20008;-50
2022/07/14 07:48:19;;;;;;;6.97;1.67;;;;;;;27.78;38.58;102000.94;6236999;23;20027;-56
2022/07/14 07:50:47;;;;;;;5.85;1.83;;;;;;;27.82;38.65;101997.47;6235777;23;20008;-54
2022/07/14 07:53:15;;;;;;;7.90;2.28;;;;;;;27.84;38.30;102001.00;6237299;23;20445;-49
2022/07/14 07:55:43;;;;;;;4.43;1.55;;;;;;;27.85;38.60;101995.78;6237493;23;20126;-48
2022/07/14 07:58:11;;;;;;;5.05;1.52;;;;;;;27.88;38.30;101989.63;6237580;23;20027;-48
2022/07/14 08:00:40;;;;;;;6.55;1.42;;;;;;;27.96;38.30;101998.56;6235366;23;20035;-46
2022/07/14 08:03:08;;;;;;;6.80;1.55;;;;;;;27.94;38.38;101992.38;6237501;23;20011;-52
2022/07/14 08:05:37;;;;;;;5.53;1.27;;;;;;;27.95;38.47;101994.13;6237160;23;20007;-52
2022/07/14 08:08:07;;;;;;;8.32;1.48;;;;;;;28.00;38.13;101995.06;6210509;23;20014;-48
2022/07/14 08:10:35;;;;;;;4.85;1.30;;;;;;;27.94;38.10;101994.09;6236248;23;20343;-49
2022/07/14 08:13:04;;;;;;;4.07;1.48;;;;;;;28.03;38.07;102002.16;6210384;23;20011;-45
2022/07/14 08:15:33;;;;;;;5.05;1.50;;;;;;;28.14;37.62;101997.00;6237672;23;20004;-45
2022/07/14 08:18:01;;;;;;;7.85;1.55;;;;;;;28.24;37.32;102004.16;6237447;23;20031;-47
2022/07/14 08:20:30;;;;;;;5.38;1.38;;;;;;;28.13;37.74;101995.25;6235678;23;20016;-47
2022/07/14 08:22:59;;;;;;;4.25;1.45;;;;;;;28.25;37.63;102000.66;6210385;23;20011;-52
2022/07/14 08:25:28;;;;;;;7.47;1.63;;;;;;;28.28;37.33;101990.16;6236846;23;20008;-46
2022/07/14 08:27:55;;;;;;;9.68;1.80;;;;;;;28.42;37.32;101995.56;6236908;23;20012;-47
2022/07/14 08:30:24;;;;;;;4.70;1.65;;;;;;;28.41;37.30;101992.91;6209338;23;20008;-49
2022/07/14 08:32:52;;;;;;;4.18;1.27;;;;;;;28.48;37.04;101989.44;6237506;23;20000;-46
2022/07/14 08:35:23;;;;;;;5.75;1.40;;;;;;;28.49;37.04;101978.94;6236669;23;20004;-46
2022/07/14 08:37:53;;;;;;;4.47;1.25;;;;;;;28.49;37.22;101992.13;6234991;23;20016;-54
2022/07/14 08:40:23;;;;;;;5.53;1.67;;;;;;;28.59;36.97;101992.19;6235686;23;20008;-51
2022/07/14 08:42:53;;;;;;;8.20;1.60;;;;;;;28.48;36.70;101989.44;6235705;23;20094;-51
2022/07/14 08:45:23;;;;;;;5.72;1.50;;;;;;;28.52;36.95;101993.91;6233488;23;20012;-44
2022/07/14 08:47:51;;;;;;;4.47;1.35;;;;;;;28.52;36.74;101993.03;6232865;23;20443;-52
2022/07/14 08:50:20;;;;;;;12.13;1.70;;;;;;;28.56;36.71;101993.06;6233924;23;20015;-44
2022/07/14 08:52:49;;;;;;;3.70;1.33;;;;;;;28.58;36.78;102003.63;6207541;23;20419;-50
2022/07/14 08:55:20;;;;;;;4.28;1.02;;;;;;;28.52;37.04;101996.53;6235347;23;20350;-47
2022/07/14 08:57:48;;;;;;;5.82;1.90;;;;;;;28.49;37.20;102009.69;6233893;23;20095;-44
2022/07/14 09:00:18;;;;;;;4.03;1.40;;;;;;;28.52;37.08;102007.09;6233731;23;20051;-51
2022/07/14 09:02:50;;;;;;;5.20;1.60;;;;;;;28.64;37.15;101999.28;6234630;23;20008;-46
2022/07/14 09:05:19;;;;;;;3.33;1.45;;;;;;;28.67;36.84;102001.09;6234794;23;20575;-47
2022/07/14 09:07:47;;;;;;;5.53;1.30;;;;;;;28.61;37.18;102001.03;6235036;23;20008;-48
2022/07/14 09:10:17;;;;;;;4.53;1.35;;;;;;;28.68;37.09;101997.59;6181792;23;20016;-48
2022/07/14 09:12:46;;;;;;;3.83;1.05;;;;;;;28.63;36.79;101994.88;6234635;23;20055;-51
2022/07/14 09:15:56;;;;;;;7.78;1.50;;;;;;;28.69;36.93;102002.00;6235137;23;20004;-55
2022/07/14 09:18:02;;;;;;;4.25;1.10;;;;;;;28.69;36.92;102001.09;6220622;23;20008;-56
2022/07/14 09:20:32;;;;;;;3.40;1.17;;;;;;;28.90;36.48;102000.44;6233345;23;20032;-46
2022/07/14 09:23:02;;;;;;;5.47;1.35;;;;;;;28.80;36.60;101999.47;6234610;23;20015;-46
2022/07/14 09:25:34;;;;;;;3.92;1.52;;;;;;;28.83;36.80;102001.25;6234864;23;20050;-48
2022/07/14 09:28:03;;;;;;;3.47;0.93;;;;;;;28.84;36.65;101993.34;6234637;23;20042;-45
2022/07/14 09:30:32;;;;;;;3.20;1.10;;;;;;;28.88;36.57;101997.78;6233536;23;20004;-48
2022/07/14 09:33:03;;;;;;;5.15;1.60;;;;;;;28.98;36.59;101996.09;6208447;23;20030;-45
2022/07/14 09:35:35;;;;;;;2.65;1.08;;;;;;;29.12;36.07;101990.94;6234031;23;20035;-47
2022/07/14 09:38:15;;;;;;;11.13;1.13;;;;;;;29.08;35.74;101992.66;6238342;23;20058;-45
2022/07/14 09:40:44;;;;;;;2.80;1.00;;;;;;;29.10;35.71;102004.13;6243833;23;20004;-48
2022/07/14 09:43:14;;;;;;;2.17;0.80;;;;;;;29.09;34.53;101994.44;6111641;23;3090758;-44
2022/07/14 09:45:46;;;;;;;3.80;1.20;;;;;;;29.16;34.48;101997.13;6245365;23;20009;-54
2022/07/14 09:48:16;;;;;;;2.53;1.25;;;;;;;29.10;34.68;101995.31;6245593;23;20003;-47
2022/07/14 09:50:50;;;;;;;4.15;1.00;;;;;;;29.10;34.69;101987.41;6245798;23;20000;-44
2022/07/14 09:53:24;;;;;;;6.55;1.60;;;;;;;29.08;34.49;101995.28;6246344;23;20019;-44
2022/07/14 09:56:13;;;;;;;3.38;1.00;;;;;;;29.12;34.28;101996.22;6247006;23;20020;-45
2022/07/14 09:58:55;;;;;;;2.83;1.17;;;;;;;29.13;34.06;101990.03;6246055;23;20004;-44
2022/07/14 10:01:24;;;;;;;4.38;1.10;;;;;;;29.18;34.61;101988.31;6245996;23;20011;-51
2022/07/14 10:03:55;;;;;;;6.60;1.38;;;;;;;29.15;34.45;102000.63;6246377;23;20481;-47
2022/07/14 10:06:23;;;;;;;5.10;1.50;;;;;;;29.06;34.17;101964.47;6245966;23;20008;-44
2022/07/14 10:08:57;;;;;;;7.75;1.63;;;;;;;29.16;34.75;101992.72;6245927;23;20001;-46
2022/07/14 10:11:27;;;;;;;6.25;1.67;;;;;;;29.13;34.23;101994.44;6245965;23;20011;-48
2022/07/14 10:13:55;;;;;;;5.53;1.83;;;;;;;29.26;34.24;101989.28;6245930;23;20007;-44
2022/07/14 10:16:23;;;;;;;4.03;1.13;;;;;;;29.29;34.12;101991.03;6245684;23;20382;-48
2022/07/14 10:18:51;;;;;;;4.72;1.45;;;;;;;29.29;34.11;101984.88;6244546;23;20490;-50
2022/07/14 10:21:19;;;;;;;7.93;2.10;;;;;;;29.25;34.19;101987.50;6219667;23;20336;-48
2022/07/14 10:23:48;;;;;;;6.10;1.83;;;;;;;29.30;34.13;101983.97;6246548;23;20004;-50
2022/07/14 10:26:20;;;;;;;4.90;1.23;;;;;;;29.23;34.17;101989.25;6244755;23;20420;-45
2022/07/14 10:28:48;;;;;;;6.75;1.50;;;;;;;29.23;33.75;101985.72;6220499;23;20087;-45
2022/07/14 10:31:22;;;;;;;3.63;1.20;;;;;;;29.33;33.65;101984.00;6246121;23;20004;-45
2022/07/14 10:34:24;;;;;;;3.30;1.10;;;;;;;29.31;33.81;101985.75;6219008;23;20008;-46
2022/07/14 10:36:59;;;;;;;5.25;1.50;;;;;;;29.31;33.27;101986.66;6215192;23;20004;-44
2022/07/14 10:39:41;;;;;;;6.13;1.50;;;;;;;29.37;32.89;101988.47;6195505;23;20079;-46
2022/07/14 10:42:50;;;;;;;6.47;1.27;;;;;;;29.39;33.15;101989.38;6245675;23;20034;-44
2022/07/14 10:45:19;;;;;;;3.40;1.05;;;;;;;29.44;33.18;101986.75;6241344;23;20067;-47
2022/07/14 10:47:51;;;;;;;5.38;1.20;;;;;;;29.47;33.36;101987.66;6219007;23;20028;-48
2022/07/14 10:50:21;;;;;;;5.40;1.58;;;;;;;29.43;33.32;101991.16;6245804;23;20389;-44
2022/07/14 10:53:01;;;;;;;4.32;1.33;;;;;;;29.48;32.82;101989.41;6246249;23;20000;-45
2022/07/14 10:55:30;;;;;;;5.15;1.40;;;;;;;29.50;32.97;101981.50;6246018;23;20004;-47
2022/07/14 10:58:03;;;;;;;3.95;1.10;;;;;;;29.53;32.64;101977.13;6245437;23;20008;-45
2022/07/14 11:00:59;;;;;;;4.60;1.38;;;;;;;29.48;32.52;101973.56;6245612;23;20435;-48
2022/07/14 11:03:33;;;;;;;2.58;1.10;;;;;;;29.61;32.57;101979.81;6245924;23;20352;-47
2022/07/14 11:06:05;;;;;;;5.50;1.60;;;;;;;29.54;32.65;101981.53;6245944;23;20007;-44
2022/07/14 11:08:34;;;;;;;3.58;1.00;;;;;;;29.50;32.12;101981.50;6245652;23;20023;-46
2022/07/14 11:11:04;;;;;;;3.30;1.05;;;;;;;29.52;32.51;101979.75;6245702;23;20004;-44
2022/07/14 11:13:33;;;;;;;5.93;1.38;;;;;;;29.66;31.79;101982.47;6219086;23;20004;-55
2022/07/14 11:16:03;;;;;;;1.92;0.70;;;;;;;29.67;31.96;101989.53;6245335;23;20007;-44
2022/07/14 11:18:35;;;;;;;5.15;1.08;;;;;;;29.61;31.66;101977.16;6245779;23;20004;-53
2022/07/14 11:21:06;;;;;;;7.03;0.98;;;;;;;29.70;31.19;101978.97;6245450;23;20004;-44
2022/07/14 11:23:37;;;;;;;5.07;1.27;;;;;;;29.70;31.31;101984.25;6245512;23;20000;-47
2022/07/14 11:26:09;;;;;;;2.88;1.33;;;;;;;29.78;30.59;101993.13;6245345;23;20011;-48
2022/07/14 11:28:51;;;;;;;4.22;0.88;;;;;;;29.70;30.93;101990.41;6244807;23;20467;-50
2022/07/14 11:31:21;;;;;;;2.47;0.93;;;;;;;29.70;30.75;102000.13;6243999;23;20075;-50
2022/07/14 11:37:01;;;;;;;3.50;0.80;;;;;;;29.91;30.03;102001.97;6239367;23;20432;-56
2022/07/14 11:39:35;;;;;;;5.75;0.95;;;;;;;29.92;29.64;101998.44;6245279;23;20008;-44
2022/07/14 11:42:17;;;;;;;1.73;0.80;;;;;;;30.00;29.66;102007.34;6243825;23;20332;-50
2022/07/14 11:44:47;;;;;;;3.45;1.15;;;;;;;29.98;29.92;102000.25;6221693;23;20070;-47
2022/07/14 11:47:17;;;;;;;3.13;1.00;;;;;;;29.97;29.57;102012.63;6245289;23;20004;-46